createdAt,value
2017-01-24T00:00:53.585Z,-0.62
2017-01-24T00:02:03.555Z,-0.58
2017-01-24T00:03:13.508Z,-0.62
2017-01-24T00:04:24.263Z,-0.48
2017-01-24T00:05:33.842Z,-0.45
2017-01-24T00:06:44.174Z,-0.48
2017-01-24T00:07:54.530Z,-0.51
2017-01-24T00:09:04.477Z,-0.54
2017-01-24T00:10:14.832Z,-0.48
2017-01-24T00:11:25.181Z,-0.58
2017-01-24T00:12:35.933Z,-0.49
2017-01-24T00:13:46.658Z,-0.55
2017-01-24T00:14:57.013Z,-0.51
2017-01-24T00:16:06.569Z,-0.66
2017-01-24T00:17:16.898Z,-0.64
2017-01-24T00:18:26.844Z,-0.61
2017-01-24T00:19:37.191Z,-0.64
2017-01-24T00:20:47.547Z,-0.55
2017-01-24T00:21:57.885Z,-0.56
2017-01-24T00:23:08.212Z,-0.72
2017-01-24T00:24:18.578Z,-0.67
2017-01-24T00:25:28.908Z,-0.79
2017-01-24T00:26:39.271Z,-0.73
2017-01-24T00:27:50.017Z,-0.89
2017-01-24T00:28:59.993Z,-0.8
2017-01-24T00:30:10.326Z,-0.92
2017-01-24T00:31:21.067Z,-0.92
2017-01-24T00:32:31.833Z,-0.89
2017-01-24T00:33:41.789Z,-0.92
2017-01-24T00:34:52.132Z,-0.85
2017-01-24T00:36:02.488Z,-0.8
2017-01-24T00:37:13.235Z,-0.85
2017-01-24T00:38:23.968Z,-0.89
2017-01-24T00:39:34.704Z,-0.93
2017-01-24T00:40:45.446Z,-0.87
2017-01-24T00:41:56.187Z,-1.01
2017-01-24T00:43:06.960Z,-0.98
2017-01-24T00:44:17.296Z,-1.03
2017-01-24T00:45:27.627Z,-0.99
2017-01-24T00:46:38.360Z,-0.92
2017-01-24T00:47:48.705Z,-1.01
2017-01-24T00:48:59.453Z,-0.93
2017-01-24T00:50:09.785Z,-0.92
2017-01-24T00:51:20.137Z,-0.95
2017-01-24T00:52:30.497Z,-0.89
2017-01-24T00:53:40.849Z,-0.87
2017-01-24T00:54:51.197Z,-0.99
2017-01-24T00:56:01.534Z,-1.01
2017-01-24T00:57:11.480Z,-0.99
2017-01-24T00:58:20.626Z,-0.96
2017-01-24T00:59:30.977Z,-1.06
2017-01-24T01:00:41.704Z,-0.96
2017-01-24T01:01:52.061Z,-0.98
2017-01-24T01:03:02.798Z,-0.95
2017-01-24T01:04:13.142Z,-0.95
2017-01-24T01:05:22.687Z,-0.99
2017-01-24T01:06:32.630Z,-0.96
2017-01-24T01:07:43.370Z,-0.98
2017-01-24T01:08:54.152Z,-0.95
2017-01-24T01:10:04.124Z,-0.99
2017-01-24T01:11:14.860Z,-1.03
2017-01-24T01:12:25.217Z,-0.98
2017-01-24T01:13:35.993Z,-0.95
2017-01-24T01:14:46.741Z,-0.95
2017-01-24T01:15:57.121Z,-1.03
2017-01-24T01:17:07.465Z,-0.96
2017-01-24T01:18:17.810Z,-0.98
2017-01-24T01:19:28.150Z,-0.96
2017-01-24T01:20:38.494Z,-0.93
2017-01-24T01:21:48.836Z,-0.93
2017-01-24T01:22:59.573Z,-0.95
2017-01-24T01:24:09.904Z,-0.92
2017-01-24T01:25:20.240Z,-1.06
2017-01-24T01:26:30.183Z,-1.03
2017-01-24T01:27:40.914Z,-1.04
2017-01-24T01:28:50.860Z,-1.04
2017-01-24T01:30:00.800Z,-0.96
2017-01-24T01:31:11.140Z,-0.93
2017-01-24T01:32:21.465Z,-0.95
2017-01-24T01:33:31.417Z,-0.91
2017-01-24T01:34:42.180Z,-0.96
2017-01-24T01:35:52.906Z,-0.91
2017-01-24T01:37:02.858Z,-0.89
2017-01-24T01:38:12.800Z,-0.91
2017-01-24T01:39:22.743Z,-0.93
2017-01-24T01:40:33.117Z,-0.91
2017-01-24T01:41:43.854Z,-0.84
2017-01-24T01:42:54.195Z,-0.91
2017-01-24T01:44:04.943Z,-0.95
2017-01-24T01:45:15.723Z,-0.95
2017-01-24T01:46:26.438Z,-0.95
2017-01-24T01:47:37.183Z,-0.95
2017-01-24T01:48:47.127Z,-0.93
2017-01-24T01:49:57.896Z,-0.99
2017-01-24T01:51:08.641Z,-0.96
2017-01-24T01:52:19.389Z,-0.96
2017-01-24T01:53:30.118Z,-1.03
2017-01-24T01:54:40.499Z,-1.03
2017-01-24T01:55:51.236Z,-0.96
2017-01-24T01:57:01.973Z,-0.93
2017-01-24T01:58:12.314Z,-1.01
2017-01-24T01:59:22.260Z,-1.01
2017-01-24T02:00:32.208Z,-0.98
2017-01-24T02:01:42.964Z,-0.95
2017-01-24T02:02:53.296Z,-1.01
2017-01-24T02:04:03.632Z,-1.03
2017-01-24T02:05:13.963Z,-0.96
2017-01-24T02:06:23.911Z,-0.93
2017-01-24T02:07:34.642Z,-1.04
2017-01-24T02:08:44.581Z,-1.06
2017-01-24T02:09:54.155Z,-1.07
2017-01-24T02:11:04.511Z,-0.93
2017-01-24T02:12:15.247Z,-1.06
2017-01-24T02:13:25.578Z,-1.09
2017-01-24T02:14:36.317Z,-1.07
2017-01-24T02:15:46.668Z,-1.03
2017-01-24T02:16:57.021Z,-1.04
2017-01-24T02:18:07.365Z,-1.04
2017-01-24T02:19:17.309Z,-1.06
2017-01-24T02:20:27.638Z,-0.96
2017-01-24T02:21:38.380Z,-0.95
2017-01-24T02:22:49.115Z,-0.96
2017-01-24T02:23:59.456Z,-1.03
2017-01-24T02:25:10.199Z,-0.98
2017-01-24T02:26:20.957Z,-0.98
2017-01-24T02:27:31.300Z,-0.99
2017-01-24T02:28:41.643Z,-0.98
2017-01-24T02:29:51.569Z,-0.96
2017-01-24T02:31:01.522Z,-1.04
2017-01-24T02:32:11.865Z,-1.03
2017-01-24T02:33:21.413Z,-1.06
2017-01-24T02:34:31.359Z,-1.04
2017-01-24T02:35:41.707Z,-1.14
2017-01-24T02:36:52.443Z,-1.07
2017-01-24T02:38:03.181Z,-1.17
2017-01-24T02:39:13.922Z,-1.06
2017-01-24T02:40:24.258Z,-1.16
2017-01-24T02:41:34.589Z,-1.1
2017-01-24T02:42:44.937Z,-1.09
2017-01-24T02:43:55.673Z,-1.04
2017-01-24T02:45:06.040Z,-1.07
2017-01-24T02:46:16.781Z,-1.1
2017-01-24T02:47:27.115Z,-1.01
2017-01-24T02:48:37.850Z,-1.1
2017-01-24T02:49:48.204Z,-1.04
2017-01-24T02:50:58.984Z,-1.06
2017-01-24T02:52:09.744Z,-1.09
2017-01-24T02:53:19.701Z,-1.09
2017-01-24T02:54:30.044Z,-1.09
2017-01-24T02:55:40.390Z,-1.04
2017-01-24T02:56:51.113Z,-1.14
2017-01-24T02:58:01.450Z,-1.09
2017-01-24T02:59:12.215Z,-1.03
2017-01-24T03:00:22.561Z,-1.11
2017-01-24T03:01:33.293Z,-1.11
2017-01-24T03:32:54.315Z,-4.19
2017-01-24T03:34:05.028Z,-4.25
2017-01-24T03:35:15.744Z,-4.27
2017-01-24T03:36:26.469Z,-4.18
2017-01-24T03:37:36.802Z,-4.08
2017-01-24T03:38:47.535Z,-4.05
2017-01-24T03:39:57.891Z,-3.8
2017-01-24T03:41:08.237Z,-3.58
2017-01-24T03:42:18.815Z,-3.47
2017-01-24T03:43:29.147Z,-3.32
2017-01-24T03:44:39.872Z,-3.14
2017-01-24T03:45:50.240Z,-2.83
2017-01-24T03:47:00.196Z,-2.7
2017-01-24T03:48:10.919Z,-2.55
2017-01-24T03:49:21.653Z,-2.39
2017-01-24T03:50:32.387Z,-2.15
2017-01-24T03:51:42.735Z,-2.09
2017-01-24T03:52:52.710Z,-1.99
2017-01-24T03:54:03.050Z,-1.81
2017-01-24T03:55:12.994Z,-1.73
2017-01-24T03:56:23.736Z,-1.64
2017-01-24T03:57:33.678Z,-1.49
2017-01-24T03:58:43.638Z,-1.43
2017-01-24T03:59:54.365Z,-1.27
2017-01-24T04:01:04.697Z,-1.27
2017-01-24T04:02:15.424Z,-1.27
2017-01-24T04:03:25.792Z,-1.11
2017-01-24T04:04:36.138Z,-1.06
2017-01-24T04:05:46.480Z,-1.03
2017-01-24T04:06:57.206Z,-0.92
2017-01-24T04:08:07.559Z,-0.95
2017-01-24T04:09:17.907Z,-0.85
2017-01-24T04:10:28.671Z,-0.89
2017-01-24T04:11:38.996Z,-0.92
2017-01-24T04:12:48.940Z,-0.93
2017-01-24T04:13:59.676Z,-0.91
2017-01-24T04:15:10.029Z,-0.82
2017-01-24T04:16:20.386Z,-0.7
2017-01-24T04:17:30.743Z,-0.61
2017-01-24T04:18:41.097Z,-0.69
2017-01-24T04:19:51.437Z,-0.62
2017-01-24T04:21:02.168Z,-0.67
2017-01-24T04:22:12.503Z,-0.69
2017-01-24T04:23:22.835Z,-0.62
2017-01-24T04:24:33.582Z,-0.66
2017-01-24T04:25:44.343Z,-0.69
2017-01-24T04:26:54.685Z,-0.67
2017-01-24T04:28:05.426Z,-0.67
2017-01-24T04:29:15.769Z,-0.62
2017-01-24T04:30:26.506Z,-0.67
2017-01-24T04:31:36.852Z,-0.52
2017-01-24T04:32:47.616Z,-0.56
2017-01-24T04:33:58.352Z,-0.59
2017-01-24T04:35:08.713Z,-0.64
2017-01-24T04:36:19.069Z,-0.66
2017-01-24T04:37:29.405Z,-0.64
2017-01-24T04:38:39.753Z,-0.64
2017-01-24T04:39:50.505Z,-0.61
2017-01-24T04:41:00.877Z,-0.59
2017-01-24T04:42:11.224Z,-0.59
2017-01-24T04:43:21.966Z,-0.64
2017-01-24T04:44:32.728Z,-0.59
2017-01-24T04:45:43.467Z,-0.59
2017-01-24T04:46:53.810Z,-0.67
2017-01-24T04:48:03.747Z,-0.66
2017-01-24T04:49:13.684Z,-0.67
2017-01-24T04:50:24.416Z,-0.67
2017-01-24T04:51:34.752Z,-0.64
2017-01-24T04:52:45.484Z,-0.66
2017-01-24T04:53:55.821Z,-0.73
2017-01-24T04:55:06.178Z,-0.66
2017-01-24T04:56:16.919Z,-0.59
2017-01-24T04:57:27.653Z,-0.58
2017-01-24T04:58:38.390Z,-0.66
2017-01-24T04:59:49.110Z,-0.64
2017-01-24T05:00:59.834Z,-0.62
2017-01-24T05:02:09.779Z,-0.61
2017-01-24T05:03:19.724Z,-0.73
2017-01-24T05:04:30.447Z,-0.7
2017-01-24T05:05:40.389Z,-0.64
2017-01-24T05:06:50.740Z,-0.64
2017-01-24T05:08:01.489Z,-0.67
2017-01-24T05:09:12.238Z,-0.73
2017-01-24T05:10:22.989Z,-0.61
2017-01-24T05:11:33.328Z,-0.64
2017-01-24T05:12:44.064Z,-0.7
2017-01-24T05:13:54.020Z,-0.7
2017-01-24T05:15:03.967Z,-0.7
2017-01-24T05:16:14.729Z,-0.74
2017-01-24T05:17:25.086Z,-0.67
2017-01-24T05:18:35.028Z,-0.74
2017-01-24T05:19:44.970Z,-0.82
2017-01-24T05:20:55.316Z,-0.74
2017-01-24T05:22:05.650Z,-0.72
2017-01-24T05:23:15.987Z,-0.67
2017-01-24T05:24:26.332Z,-0.67
2017-01-24T05:25:36.698Z,-0.67
2017-01-24T05:26:47.421Z,-0.62
2017-01-24T05:27:57.752Z,-0.69
2017-01-24T05:29:07.704Z,-0.64
2017-01-24T05:30:17.650Z,-0.66
2017-01-24T05:31:28.388Z,-0.62
2017-01-24T05:32:38.726Z,-0.7
2017-01-24T05:33:49.485Z,-0.61
2017-01-24T05:34:59.812Z,-0.7
2017-01-24T05:36:10.159Z,-0.64
2017-01-24T05:37:20.508Z,-0.64
2017-01-24T05:38:31.268Z,-0.72
2017-01-24T05:39:41.619Z,-0.56
2017-01-24T05:40:51.946Z,-0.64
2017-01-24T05:42:02.686Z,-0.69
2017-01-24T05:43:13.419Z,-0.67
2017-01-24T05:44:22.967Z,-0.64
2017-01-24T05:45:33.333Z,-0.69
2017-01-24T05:46:44.081Z,-0.72
2017-01-24T05:47:54.031Z,-0.64
2017-01-24T05:49:04.374Z,-0.59
2017-01-24T05:50:15.124Z,-0.67
2017-01-24T05:51:25.463Z,-0.64
2017-01-24T05:52:35.811Z,-0.61
2017-01-24T05:53:46.197Z,-0.61
2017-01-24T05:54:56.979Z,-0.66
2017-01-24T05:56:07.731Z,-0.59
2017-01-24T05:57:18.484Z,-0.49
2017-01-24T05:58:28.832Z,-0.64
2017-01-24T05:59:38.790Z,-0.54
2017-01-24T06:00:49.516Z,-0.59
2017-01-24T06:01:59.064Z,-0.52
2017-01-24T06:03:09.394Z,-0.52
2017-01-24T06:04:19.731Z,-0.59
2017-01-24T06:05:30.513Z,-0.56
2017-01-24T06:06:41.225Z,-0.51
2017-01-24T06:07:51.574Z,-0.54
2017-01-24T06:09:02.301Z,-0.41
2017-01-24T06:10:12.639Z,-0.62
2017-01-24T06:11:23.383Z,-0.56
2017-01-24T06:12:34.124Z,-0.55
2017-01-24T06:13:44.867Z,-0.51
2017-01-24T06:14:54.804Z,-0.64
2017-01-24T06:16:05.553Z,-0.56
2017-01-24T06:17:15.900Z,-0.55
2017-01-24T06:18:25.468Z,-0.48
2017-01-24T06:19:35.878Z,-0.51
2017-01-24T06:20:45.832Z,-0.55
2017-01-24T06:21:56.183Z,-0.49
2017-01-24T06:23:06.523Z,-0.56
2017-01-24T06:24:17.260Z,-0.56
2017-01-24T06:25:27.981Z,-0.61
2017-01-24T06:26:38.322Z,-0.66
2017-01-24T06:27:49.070Z,-0.59
2017-01-24T06:28:59.817Z,-0.61
2017-01-24T06:30:09.773Z,-0.58
2017-01-24T06:31:20.097Z,-0.61
2017-01-24T06:32:30.466Z,-0.54
2017-01-24T06:33:40.030Z,-0.45
2017-01-24T06:34:50.360Z,-0.46
2017-01-24T06:36:00.323Z,-0.45
2017-01-24T06:37:11.069Z,-0.4
2017-01-24T06:38:21.410Z,-0.38
2017-01-24T06:39:32.162Z,-0.41
2017-01-24T06:40:42.498Z,-0.34
2017-01-24T06:41:52.850Z,-0.38
2017-01-24T06:43:03.188Z,-0.36
2017-01-24T06:44:13.569Z,-0.45
2017-01-24T06:45:24.315Z,-0.45
2017-01-24T06:46:34.663Z,-0.31
2017-01-24T06:47:45.384Z,-0.37
2017-01-24T06:48:56.114Z,-0.33
2017-01-24T06:50:06.084Z,-0.36
2017-01-24T06:51:16.872Z,-0.37
2017-01-24T06:52:27.617Z,-0.38
2017-01-24T06:53:38.338Z,-0.38
2017-01-24T06:54:48.685Z,-0.33
2017-01-24T06:55:59.029Z,-0.36
2017-01-24T06:57:09.379Z,-0.27
2017-01-24T06:58:19.730Z,-0.34
2017-01-24T06:59:29.692Z,-0.25
2017-01-24T07:00:40.064Z,-0.22
2017-01-24T07:01:50.009Z,-0.37
2017-01-24T07:03:00.776Z,-0.2
2017-01-24T07:04:11.524Z,-0.3
2017-01-24T07:05:22.261Z,-0.31
2017-01-24T07:06:32.241Z,-0.3
2017-01-24T07:07:42.980Z,-0.37
2017-01-24T07:08:53.717Z,-0.34
2017-01-24T07:10:03.672Z,-0.37
2017-01-24T07:11:14.406Z,-0.33
2017-01-24T07:12:24.759Z,-0.25
2017-01-24T07:13:34.706Z,-0.38
2017-01-24T07:14:45.450Z,-0.31
2017-01-24T07:15:55.407Z,-0.3
2017-01-24T07:17:05.751Z,-0.41
2017-01-24T07:18:16.482Z,-0.36
2017-01-24T07:19:26.849Z,-0.37
2017-01-24T07:20:37.221Z,-0.37
2017-01-24T07:21:47.958Z,-0.36
2017-01-24T07:22:58.320Z,-0.36
2017-01-24T07:24:08.682Z,-0.4
2017-01-24T07:25:19.019Z,-0.41
2017-01-24T07:26:29.768Z,-0.4
2017-01-24T07:27:40.162Z,-0.46
2017-01-24T07:28:50.499Z,-0.55
2017-01-24T07:30:00.706Z,-0.61
2017-01-24T07:31:11.436Z,-0.58
2017-01-24T07:32:21.783Z,-0.61
2017-01-24T07:33:32.535Z,-0.62
2017-01-24T07:34:42.886Z,-0.66
2017-01-24T07:35:53.623Z,-0.67
2017-01-24T07:37:03.966Z,-0.62
2017-01-24T07:38:14.718Z,-0.67
2017-01-24T07:39:25.073Z,-0.64
2017-01-24T07:40:35.400Z,-0.66
2017-01-24T07:41:45.744Z,-0.64
2017-01-24T07:42:56.506Z,-0.62
2017-01-24T07:44:06.854Z,-0.64
2017-01-24T07:45:16.807Z,-0.51
2017-01-24T07:46:27.156Z,-0.52
2017-01-24T07:47:37.492Z,-0.45
2017-01-24T07:48:47.878Z,-0.34
2017-01-24T07:49:58.618Z,-0.38
2017-01-24T07:51:08.197Z,-0.3
2017-01-24T07:52:18.928Z,-0.3
2017-01-24T07:53:29.268Z,-0.3
2017-01-24T07:54:39.617Z,-0.31
2017-01-24T07:55:50.352Z,-0.2
2017-01-24T07:57:00.715Z,-0.25
2017-01-24T07:58:11.070Z,-0.19
2017-01-24T07:59:21.797Z,-0.33
2017-01-24T08:00:31.748Z,-0.25
2017-01-24T08:01:41.700Z,-0.23
2017-01-24T08:02:52.033Z,-0.27
2017-01-24T08:04:02.768Z,-0.3
2017-01-24T08:05:13.122Z,-0.25
2017-01-24T08:06:23.066Z,-0.22
2017-01-24T08:07:33.022Z,-0.23
2017-01-24T08:08:43.375Z,-0.22
2017-01-24T08:09:53.324Z,-0.23
2017-01-24T08:11:03.662Z,-0.22
2017-01-24T08:12:14.397Z,-0.25
2017-01-24T08:13:25.162Z,-0.16
2017-01-24T08:14:35.895Z,-0.22
2017-01-24T08:15:46.631Z,-0.23
2017-01-24T08:16:57.369Z,-0.15
2017-01-24T08:18:08.105Z,-0.23
2017-01-24T08:19:18.843Z,-0.22
2017-01-24T08:20:29.172Z,-0.18
2017-01-24T08:21:39.900Z,-0.2
2017-01-24T08:22:50.641Z,-0.19
2017-01-24T08:24:00.987Z,-0.22
2017-01-24T08:25:11.316Z,-0.2
2017-01-24T08:26:21.649Z,-0.18
2017-01-24T08:27:32.383Z,-0.19
2017-01-24T08:28:42.729Z,-0.18
2017-01-24T08:29:53.467Z,-0.12
2017-01-24T08:31:04.218Z,-0.05
2017-01-24T08:32:14.949Z,-0.09
2017-01-24T08:33:25.327Z,-0.1
2017-01-24T08:34:36.073Z,-0.1
2017-01-24T08:35:46.806Z,-0.15
2017-01-24T08:36:57.143Z,-0.19
2017-01-24T08:38:07.499Z,-0.18
2017-01-24T08:39:18.259Z,-0.18
2017-01-24T08:40:28.605Z,-0.12
2017-01-24T08:41:39.345Z,-0.07
2017-01-24T08:42:50.075Z,-0.13
2017-01-24T08:44:00.824Z,-0.12
2017-01-24T08:45:11.169Z,-0.13
2017-01-24T08:46:21.526Z,-0.13
2017-01-24T08:47:32.274Z,-0.1
2017-01-24T08:48:43.004Z,-0.15
2017-01-24T08:49:53.740Z,-0.01
2017-01-24T08:51:04.477Z,-0.01
2017-01-24T08:52:15.210Z,-0.05
2017-01-24T08:53:24.772Z,0.01
2017-01-24T08:54:35.517Z,0.01
2017-01-24T08:55:46.239Z,0.01
2017-01-24T08:56:56.622Z,0.09
2017-01-24T08:58:07.403Z,0.1
2017-01-24T08:59:18.139Z,0.1
2017-01-24T09:00:28.872Z,0.06
2017-01-24T09:01:39.629Z,0.03
2017-01-24T09:02:50.406Z,0.05
2017-01-24T09:04:00.366Z,0.09
2017-01-24T09:05:10.312Z,0.06
2017-01-24T09:06:21.055Z,0.16
2017-01-24T09:07:31.811Z,0.17
2017-01-24T09:08:42.589Z,0.17
2017-01-24T09:09:53.315Z,0.16
2017-01-24T09:11:03.656Z,0.1
2017-01-24T09:12:14.409Z,0.13
2017-01-24T09:13:25.157Z,0.13
2017-01-24T09:14:35.897Z,0.1
2017-01-24T09:15:46.633Z,0.09
2017-01-24T09:16:57.370Z,0.09
2017-01-24T09:18:08.122Z,0.09
2017-01-24T09:19:18.899Z,0.08
2017-01-24T09:20:29.656Z,0.14
2017-01-24T09:21:40.477Z,0.08
2017-01-24T09:22:51.237Z,-0.04
2017-01-24T09:24:01.990Z,0.03
2017-01-24T09:25:12.737Z,0.02
2017-01-24T09:26:23.514Z,-0.05
2017-01-24T09:27:33.870Z,0.01
2017-01-24T09:28:43.436Z,-0.01
2017-01-24T09:29:54.185Z,0.01
2017-01-24T09:31:04.932Z,-0.13
2017-01-24T09:32:15.663Z,-0.09
2017-01-24T09:33:26.025Z,0.01
2017-01-24T09:34:36.760Z,-0.04
2017-01-24T09:35:47.098Z,0.03
2017-01-24T09:36:57.845Z,0.09
2017-01-24T09:38:08.582Z,-0.01
2017-01-24T09:39:19.315Z,0.03
2017-01-24T09:40:30.045Z,0.09
2017-01-24T09:41:39.987Z,0.02
2017-01-24T09:42:50.729Z,0.03
2017-01-24T09:44:01.085Z,-0.02
2017-01-24T09:45:11.810Z,0.05
2017-01-24T09:46:22.156Z,0.06
2017-01-24T09:47:32.493Z,0.16
2017-01-24T09:48:43.227Z,0.17
2017-01-24T09:49:53.980Z,0.1
2017-01-24T09:51:04.747Z,0.08
2017-01-24T09:52:15.477Z,0.09
2017-01-24T09:53:26.211Z,0.1
2017-01-24T09:54:36.958Z,0.09
2017-01-24T09:55:47.718Z,0.09
2017-01-24T09:56:58.531Z,0.08
2017-01-24T09:58:09.279Z,0.05
2017-01-24T09:59:20.055Z,0.08
2017-01-24T10:00:30.804Z,0.05
2017-01-24T10:01:41.537Z,0.02
2017-01-24T10:02:52.325Z,0.02
2017-01-24T10:04:03.064Z,-0.02
2017-01-24T10:05:13.820Z,0.08
2017-01-24T10:06:24.558Z,0.05
2017-01-24T10:07:34.495Z,0.09
2017-01-24T10:08:45.234Z,0.14
2017-01-24T10:09:55.198Z,0.03
2017-01-24T10:11:05.956Z,0.03
2017-01-24T10:12:16.734Z,0.09
2017-01-24T10:13:27.513Z,0.13
2017-01-24T10:14:38.252Z,0.16
2017-01-24T10:15:49.030Z,0.14
2017-01-24T10:16:59.796Z,0.2
2017-01-24T10:18:10.137Z,0.17
2017-01-24T10:19:20.908Z,0.16
2017-01-24T10:20:31.272Z,0.14
2017-01-24T10:21:42.049Z,0.19
2017-01-24T10:22:52.417Z,0.2
2017-01-24T10:24:02.796Z,0.2
2017-01-24T10:25:13.542Z,0.08
2017-01-24T10:26:23.503Z,0.2
2017-01-24T10:27:34.252Z,0.2
2017-01-24T10:28:44.225Z,0.14
2017-01-24T10:29:54.975Z,0.23
2017-01-24T10:31:05.336Z,0.2
2017-01-24T10:32:16.091Z,0.16
2017-01-24T10:33:26.839Z,0.26
2017-01-24T10:34:37.586Z,0.24
2017-01-24T10:35:48.345Z,0.28
2017-01-24T10:36:59.090Z,0.24
2017-01-24T10:38:09.838Z,0.24
2017-01-24T10:39:20.588Z,0.32
2017-01-24T10:40:31.370Z,0.27
2017-01-24T10:41:42.107Z,0.26
2017-01-24T10:42:52.858Z,0.21
2017-01-24T10:44:03.601Z,0.21
2017-01-24T10:45:14.382Z,0.23
2017-01-24T10:46:25.157Z,0.19
2017-01-24T10:47:35.899Z,0.17
2017-01-24T10:48:46.658Z,0.23
2017-01-24T10:49:57.005Z,0.27
2017-01-24T10:51:07.774Z,0.28
2017-01-24T10:52:18.529Z,0.35
2017-01-24T10:53:29.279Z,0.37
2017-01-24T10:54:40.036Z,0.31
2017-01-24T10:55:50.792Z,0.31
2017-01-24T10:57:01.540Z,0.31
2017-01-24T10:58:12.285Z,0.39
2017-01-24T10:59:23.028Z,0.45
2017-01-24T11:00:32.604Z,0.34
2017-01-24T11:01:43.370Z,0.41
2017-01-24T11:02:54.142Z,0.38
2017-01-24T11:04:04.891Z,0.39
2017-01-24T11:05:15.902Z,0.34
2017-01-24T11:06:26.261Z,0.28
2017-01-24T11:07:37.004Z,0.31
2017-01-24T11:08:47.391Z,0.13
2017-01-24T11:09:58.129Z,0.26
2017-01-24T11:11:08.486Z,0.28
2017-01-24T11:12:18.831Z,0.34
2017-01-24T11:13:28.796Z,0.31
2017-01-24T11:14:39.555Z,0.39
2017-01-24T11:15:49.546Z,0.38
2017-01-24T11:17:00.326Z,0.31
2017-01-24T11:18:10.304Z,0.35
2017-01-24T11:19:21.095Z,0.28
2017-01-24T11:20:31.907Z,0.32
2017-01-24T11:21:42.702Z,0.34
2017-01-24T11:22:53.488Z,0.39
2017-01-24T11:24:05.023Z,0.42
2017-01-24T11:25:16.684Z,0.31
2017-01-24T11:26:28.435Z,0.35
2017-01-24T11:27:39.490Z,0.38
2017-01-24T11:28:50.493Z,0.41
2017-01-24T11:30:01.663Z,0.38
2017-01-24T11:31:12.020Z,0.41
2017-01-24T11:32:23.317Z,0.37
2017-01-24T11:33:34.880Z,0.42
2017-01-24T11:34:45.031Z,0.42
2017-01-24T11:35:55.621Z,0.31
2017-01-24T11:37:06.956Z,0.32
2017-01-24T11:38:17.951Z,0.24
2017-01-24T11:39:28.346Z,0.27
2017-01-24T11:40:39.113Z,0.32
2017-01-24T11:41:49.857Z,0.31
2017-01-24T11:43:00.618Z,0.44
2017-01-24T11:44:11.373Z,0.5
2017-01-24T11:45:22.129Z,0.44
2017-01-24T11:46:32.918Z,0.39
2017-01-24T11:47:43.269Z,0.34
2017-01-24T11:48:53.662Z,0.24
2017-01-24T11:50:04.050Z,0.35
2017-01-24T11:51:14.820Z,0.31
2017-01-24T11:52:25.570Z,0.34
2017-01-24T11:53:36.324Z,0.41
2017-01-24T11:54:47.083Z,0.41
2017-01-24T11:55:57.840Z,0.45
2017-01-24T11:57:08.603Z,0.45
2017-01-24T11:58:19.354Z,0.5
2017-01-24T11:59:29.731Z,0.47
2017-01-24T12:00:40.074Z,0.45
2017-01-24T12:01:50.429Z,0.41
2017-01-24T12:03:01.186Z,0.48
2017-01-24T12:04:11.543Z,0.5
2017-01-24T12:05:21.890Z,0.52
2017-01-24T12:06:32.293Z,0.48
2017-01-24T12:07:42.648Z,0.58
2017-01-24T12:08:53.395Z,0.57
2017-01-24T12:10:04.138Z,0.52
2017-01-24T12:11:14.499Z,0.5
2017-01-24T12:12:25.255Z,0.61
2017-01-24T12:13:35.645Z,0.45
2017-01-24T12:14:46.001Z,0.45
2017-01-24T12:15:56.768Z,0.41
2017-01-24T12:17:07.566Z,0.39
2017-01-24T12:18:17.933Z,0.37
2017-01-24T12:19:28.705Z,0.37
2017-01-24T12:20:39.483Z,0.32
2017-01-24T12:21:49.863Z,0.27
2017-01-24T12:22:59.874Z,0.27
2017-01-24T12:24:10.669Z,0.32
2017-01-24T12:25:21.463Z,0.27
2017-01-24T12:26:31.871Z,0.28
2017-01-24T12:27:42.665Z,0.28
2017-01-24T12:28:53.452Z,0.34
2017-01-24T12:30:03.843Z,0.32
2017-01-24T12:31:14.223Z,0.27
2017-01-24T12:32:24.628Z,0.35
2017-01-24T12:33:34.627Z,0.31
2017-01-24T12:34:45.012Z,0.28
2017-01-24T12:35:55.791Z,0.32
2017-01-24T12:37:05.790Z,0.38
2017-01-24T12:38:16.577Z,0.47
2017-01-24T12:39:26.990Z,0.5
2017-01-24T12:40:37.754Z,0.45
2017-01-24T12:41:48.562Z,0.48
2017-01-24T12:42:59.395Z,0.42
2017-01-24T12:44:10.249Z,0.47
2017-01-24T12:45:20.720Z,0.47
2017-01-24T12:46:31.586Z,0.47
2017-01-24T12:47:42.402Z,0.52
2017-01-24T12:48:53.237Z,0.52
2017-01-24T12:50:04.064Z,0.47
2017-01-24T12:51:14.481Z,0.47
2017-01-24T12:52:25.280Z,0.5
2017-01-24T12:53:35.645Z,0.56
2017-01-24T12:54:46.411Z,0.44
2017-01-24T12:55:56.758Z,0.42
2017-01-24T12:57:07.494Z,0.41
2017-01-24T12:58:17.832Z,0.45
2017-01-24T12:59:28.570Z,0.42
2017-01-24T13:00:39.307Z,0.39
2017-01-24T13:01:49.258Z,0.37
2017-01-24T13:02:59.994Z,0.42
2017-01-24T13:04:10.751Z,0.39
2017-01-24T13:05:21.088Z,0.48
2017-01-24T13:06:31.055Z,0.44
2017-01-24T13:07:41.399Z,0.47
2017-01-24T13:08:52.148Z,0.42
2017-01-24T13:10:02.475Z,0.44
2017-01-24T13:11:12.041Z,0.48
2017-01-24T13:12:22.382Z,0.44
2017-01-24T13:13:31.934Z,0.48
2017-01-24T13:14:41.880Z,0.47
2017-01-24T13:15:52.618Z,0.48
2017-01-24T13:17:02.948Z,0.52
2017-01-24T13:18:13.292Z,0.45
2017-01-24T13:19:24.066Z,0.48
2017-01-24T13:20:34.811Z,0.44
2017-01-24T13:21:45.570Z,0.42
2017-01-24T13:22:55.901Z,0.44
2017-01-24T13:24:05.864Z,0.47
2017-01-24T13:25:15.815Z,0.45
2017-01-24T13:26:26.565Z,0.45
2017-01-24T13:27:37.554Z,0.5
2017-01-24T13:28:48.309Z,0.47
2017-01-24T13:29:59.056Z,0.42
2017-01-24T13:31:09.434Z,0.52
2017-01-24T13:32:20.178Z,0.42
2017-01-24T13:33:30.917Z,0.47
2017-01-24T13:34:41.664Z,0.47
2017-01-24T13:35:52.405Z,0.45
2017-01-24T13:37:02.774Z,0.42
2017-01-24T13:38:13.124Z,0.34
2017-01-24T13:39:23.865Z,0.37
2017-01-24T13:40:34.234Z,0.39
2017-01-24T13:41:45.041Z,0.37
2017-01-24T13:42:54.611Z,0.31
2017-01-24T13:44:05.379Z,0.26
2017-01-24T13:45:15.341Z,0.32
2017-01-24T13:46:26.079Z,0.31
2017-01-24T13:47:36.438Z,0.35
2017-01-24T13:48:46.039Z,0.34
2017-01-24T13:49:56.375Z,0.34
2017-01-24T13:51:06.356Z,0.31
2017-01-24T13:52:16.303Z,0.27
2017-01-24T13:53:27.048Z,0.27
2017-01-24T13:54:37.821Z,0.19
2017-01-24T13:55:47.780Z,0.19
2017-01-24T13:56:57.768Z,0.26
2017-01-24T13:58:08.509Z,0.24
2017-01-24T13:59:18.066Z,0.23
2017-01-24T14:00:28.803Z,0.23
2017-01-24T14:01:39.168Z,0.26
2017-01-24T14:02:49.540Z,0.24
2017-01-24T14:04:00.291Z,0.24
2017-01-24T14:05:10.240Z,0.26
2017-01-24T14:06:20.589Z,0.28
2017-01-24T14:07:30.961Z,0.35
2017-01-24T14:08:41.698Z,0.31
2017-01-24T14:09:52.450Z,0.34
2017-01-24T14:11:02.811Z,0.32
2017-01-24T14:12:13.590Z,0.37
2017-01-24T14:13:24.351Z,0.37
2017-01-24T14:14:35.174Z,0.38
2017-01-24T14:15:45.927Z,0.45
2017-01-24T14:16:56.694Z,0.31
2017-01-24T14:18:07.035Z,0.38
2017-01-24T14:19:17.798Z,0.38
2017-01-24T14:20:28.150Z,0.45
2017-01-24T14:21:38.145Z,0.45
2017-01-24T14:22:48.932Z,0.37
2017-01-24T14:23:59.292Z,0.35
2017-01-24T14:25:10.064Z,0.32
2017-01-24T14:26:20.801Z,0.37
2017-01-24T14:27:31.553Z,0.42
2017-01-24T14:28:42.325Z,0.39
2017-01-24T14:29:53.052Z,0.35
2017-01-24T14:31:03.424Z,0.52
2017-01-24T14:32:13.774Z,0.47
2017-01-24T14:33:24.548Z,0.5
2017-01-24T14:34:34.893Z,0.45
2017-01-24T14:35:45.269Z,0.45
2017-01-24T14:36:56.015Z,0.44
2017-01-24T14:38:06.381Z,0.48
2017-01-24T14:39:17.143Z,0.5
2017-01-24T14:40:27.512Z,0.44
2017-01-24T14:41:38.300Z,0.38
2017-01-24T14:42:49.054Z,0.52
2017-01-24T14:43:59.410Z,0.47
2017-01-24T14:45:10.165Z,0.47
2017-01-24T14:46:20.940Z,0.42
2017-01-24T14:47:31.705Z,0.48
2017-01-24T14:48:42.064Z,0.44
2017-01-24T14:49:52.470Z,0.47
2017-01-24T14:51:02.826Z,0.47
2017-01-24T14:52:13.204Z,0.41
2017-01-24T14:53:23.550Z,0.44
2017-01-24T14:54:34.328Z,0.56
2017-01-24T14:55:45.065Z,0.5
2017-01-24T14:56:55.038Z,0.42
2017-01-24T14:58:05.400Z,0.41
2017-01-24T14:59:16.167Z,0.34
2017-01-24T15:00:26.932Z,0.26
2017-01-24T15:01:37.683Z,0.34
2017-01-24T15:02:48.437Z,0.31
2017-01-24T15:03:58.450Z,0.41
2017-01-24T15:05:08.817Z,0.41
2017-01-24T15:06:19.193Z,0.37
2017-01-24T15:07:29.558Z,0.42
2017-01-24T15:08:39.937Z,0.5
2017-01-24T15:09:50.288Z,0.47
2017-01-24T15:11:01.033Z,0.5
2017-01-24T15:12:11.408Z,0.5
2017-01-24T15:13:22.142Z,0.42
2017-01-24T15:14:32.525Z,0.45
2017-01-24T15:15:42.484Z,0.48
2017-01-24T15:16:52.828Z,0.47
2017-01-24T15:18:03.599Z,0.39
2017-01-24T15:19:13.953Z,0.39
2017-01-24T15:20:24.690Z,0.42
2017-01-24T15:21:35.036Z,0.42
2017-01-24T15:22:45.421Z,0.39
2017-01-24T15:23:55.778Z,0.45
2017-01-24T15:25:06.141Z,0.41
2017-01-24T15:26:16.902Z,0.35
2017-01-24T15:27:27.275Z,0.37
2017-01-24T15:28:38.052Z,0.39
2017-01-24T15:29:48.809Z,0.38
2017-01-24T15:30:59.573Z,0.35
2017-01-24T15:32:09.932Z,0.34
2017-01-24T15:33:20.293Z,0.34
2017-01-24T15:34:30.658Z,0.32
2017-01-24T15:35:40.638Z,0.28
2017-01-24T15:36:51.017Z,0.27
2017-01-24T15:38:01.806Z,0.31
2017-01-24T15:39:11.773Z,0.32
2017-01-24T15:40:22.587Z,0.32
2017-01-24T15:41:33.472Z,0.27
2017-01-24T15:42:43.423Z,0.32
2017-01-24T15:43:53.854Z,0.35
2017-01-24T15:45:04.586Z,0.27
2017-01-24T15:46:15.344Z,0.31
2017-01-24T15:47:25.728Z,0.32
2017-01-24T15:48:36.103Z,0.28
2017-01-24T15:49:46.877Z,0.34
2017-01-24T15:50:57.225Z,0.31
2017-01-24T15:52:07.226Z,0.32
2017-01-24T15:53:17.982Z,0.34